Finlayson, Minnesota
Current Conditions -  °F | °C
As of 4:35 PM on Monday 22 Dec 2014 (Local Time) from K04W Reporting Station
Haze Haze  
Wind Chill: 34°   Ceiling: 600
Heat Index: 34°   Visibility: 2mi
Dew Point: 34°   Wind: 0mph
Humidity: 100%   Direction: NA
Pressure: 29.65"   Gusts: NA
Location:  46.2°N, 92.92°W
Report Text: K04W 222235Z AUTO 00000KT 2SM BR OVC006 01/01 A2965 RMK AO2 P0001
Loading
Personal Weather Stations






























Interactive Weather Map New forecast layout! Learn more

10-Day Weather Forecast

Advertisements
Track Severe Weather on mobile